Time;durP1;ratioP1;P1;durP2;ratioP2;P2;SDS_P1;SDS_P2;PMS_P1;PMS_P2;Temp;Humidity;BMP_temperature;BMP_pressure;BME280_temperature;BME280_humidity;BME280_pressure;Samples;Min_cycle;Max_cycle;Signal;HPM_P1;HPM_P2
2022/09/02 00:01:54;;;;;;;3.37;1.77;;;;;;;18.57;85.37;99193.53;5116082;28;20186;-79
2022/09/02 00:04:25;;;;;;;3.20;1.80;;;;;;;18.57;85.18;99196.19;5111516;28;20198;-79
2022/09/02 00:06:57;;;;;;;2.37;1.60;;;;;;;18.60;85.04;99189.69;5113602;28;20211;-80
2022/09/02 00:09:27;;;;;;;2.83;1.60;;;;;;;18.56;84.97;99188.31;5116525;28;20206;-79
2022/09/02 00:11:56;;;;;;;3.27;1.53;;;;;;;18.47;85.54;99194.56;5115498;28;20199;-79
2022/09/02 00:14:28;;;;;;;7.90;1.90;;;;;;;18.45;86.12;99192.03;5111320;28;20270;-79
2022/09/02 00:16:59;;;;;;;1.63;1.20;;;;;;;18.50;85.51;99187.03;5111394;28;20261;-79
2022/09/02 00:19:31;;;;;;;2.10;1.37;;;;;;;18.37;85.84;99196.44;5110195;28;20222;-80
2022/09/02 00:22:02;;;;;;;3.60;1.50;;;;;;;18.36;86.70;99194.75;5109954;28;20199;-79
2022/09/02 00:24:31;;;;;;;2.53;1.40;;;;;;;18.46;86.54;99198.25;5112247;28;20223;-79
2022/09/02 00:26:59;;;;;;;3.40;1.40;;;;;;;18.31;86.67;99187.13;5107015;28;20286;-79
2022/09/02 00:29:29;;;;;;;4.30;1.43;;;;;;;18.33;86.77;99187.81;5114132;28;20194;-80
2022/09/02 00:31:58;;;;;;;3.63;1.40;;;;;;;18.27;87.68;99194.63;5111785;28;20269;-80
2022/09/02 00:34:27;;;;;;;2.23;1.37;;;;;;;18.15;89.16;99187.75;5113187;28;20183;-79
2022/09/02 00:36:59;;;;;;;2.13;1.30;;;;;;;18.15;89.51;99189.59;5110952;28;20202;-80
2022/09/02 00:39:29;;;;;;;2.93;2.00;;;;;;;17.99;90.70;99188.34;5116636;28;20199;-79
2022/09/02 00:42:00;;;;;;;1.93;1.20;;;;;;;18.01;90.75;99172.97;5115152;28;20328;-79
2022/09/02 00:44:28;;;;;;;4.70;1.67;;;;;;;18.06;90.68;99175.22;5066026;28;20207;-79
2022/09/02 00:46:58;;;;;;;3.17;1.43;;;;;;;17.90;91.77;99177.66;5069447;28;20220;-79
2022/09/02 00:49:29;;;;;;;5.53;1.50;;;;;;;17.94;91.84;99173.69;5065124;28;20382;-80
2022/09/02 00:52:03;;;;;;;4.63;1.50;;;;;;;17.96;92.02;99179.78;5069798;28;20724;-79
2022/09/02 00:54:37;;;;;;;2.57;1.60;;;;;;;18.00;92.27;99171.28;5063585;28;20196;-80
2022/09/02 00:57:11;;;;;;;4.17;1.43;;;;;;;17.91;92.44;99172.16;5062992;28;20200;-79
2022/09/02 00:59:46;;;;;;;3.03;1.40;;;;;;;17.81;93.23;99168.63;5073320;28;20747;-80
2022/09/02 01:02:16;;;;;;;4.93;1.30;;;;;;;17.91;93.33;99169.47;5068191;28;20220;-79
2022/09/02 01:04:46;;;;;;;2.77;1.60;;;;;;;17.94;93.60;99165.63;5061573;28;20254;-80
2022/09/02 01:07:16;;;;;;;3.70;1.30;;;;;;;17.97;93.80;99160.84;5066644;28;20201;-80
2022/09/02 01:09:46;;;;;;;2.83;1.63;;;;;;;17.92;94.90;99168.47;5066682;28;20203;-80
2022/09/02 01:12:15;;;;;;;3.40;1.40;;;;;;;17.82;95.81;99166.81;5010625;28;20318;-80
2022/09/02 01:14:43;;;;;;;3.00;1.50;;;;;;;17.84;95.90;99162.13;5009387;28;20206;-79
2022/09/02 01:17:12;;;;;;;2.57;1.40;;;;;;;17.86;96.27;99162.88;5008159;28;20210;-80
2022/09/02 01:19:47;;;;;;;2.30;1.30;;;;;;;17.71;96.77;99163.28;5009485;28;20198;-80
2022/09/02 01:22:20;;;;;;;3.00;1.47;;;;;;;17.70;96.72;99164.28;5009295;28;20276;-80
2022/09/02 01:24:49;;;;;;;2.50;1.50;;;;;;;17.62;96.67;99171.31;5008404;28;20458;-79
2022/09/02 01:27:20;;;;;;;1.80;1.47;;;;;;;17.60;96.62;99168.78;5005874;28;20198;-80
2022/09/02 01:29:52;;;;;;;1.93;1.30;;;;;;;17.67;94.87;99155.69;5046864;28;20667;-79
2022/09/02 01:32:22;;;;;;;4.60;1.33;;;;;;;17.59;95.41;99171.63;5048822;28;20224;-79
2022/09/02 01:34:51;;;;;;;3.17;1.40;;;;;;;17.51;96.39;99158.91;5046973;28;20208;-80
2022/09/02 01:37:24;;;;;;;2.50;1.20;;;;;;;17.40;95.80;99161.75;5076831;28;20439;-79
2022/09/02 01:39:53;;;;;;;2.50;1.30;;;;;;;17.45;95.17;99163.00;5013110;28;20673;-79
2022/09/02 01:42:22;;;;;;;3.20;1.70;;;;;;;17.53;95.22;99162.28;5009599;28;20198;-80
2022/09/02 01:44:50;;;;;;;1.63;1.40;;;;;;;17.57;95.28;99161.03;5007890;28;20205;-80
2022/09/02 01:47:22;;;;;;;3.70;1.23;;;;;;;17.60;95.76;99159.91;5016220;28;20226;-80
2022/09/02 01:49:52;;;;;;;3.07;1.20;;;;;;;17.61;95.01;99156.22;5040821;28;20220;-79
2022/09/02 01:52:25;;;;;;;4.00;1.30;;;;;;;17.68;94.76;99149.31;5041923;28;20225;-80
2022/09/02 01:54:54;;;;;;;2.13;1.30;;;;;;;17.68;94.88;99149.31;5047266;28;20186;-79
2022/09/02 01:57:24;;;;;;;6.43;1.60;;;;;;;17.63;94.41;99151.56;5050337;28;20212;-77
2022/09/02 01:59:53;;;;;;;6.13;1.60;;;;;;;17.71;94.10;99154.41;5045155;28;20190;-79
2022/09/02 02:02:22;;;;;;;2.23;1.20;;;;;;;17.78;92.72;99150.19;5042568;28;20197;-79
2022/09/02 02:04:52;;;;;;;2.00;1.10;;;;;;;17.72;92.77;99151.59;5079547;28;20191;-79
2022/09/02 02:07:22;;;;;;;3.37;1.60;;;;;;;17.82;92.13;99150.72;5092802;28;20199;-79
2022/09/02 02:09:52;;;;;;;2.47;1.60;;;;;;;17.79;92.27;99149.19;5093436;28;20196;-79
2022/09/02 02:12:21;;;;;;;2.17;1.47;;;;;;;17.76;92.48;99145.94;5051993;28;20299;-79
2022/09/02 02:14:51;;;;;;;4.17;1.50;;;;;;;17.79;92.52;99143.84;5048334;28;20276;-79
2022/09/02 02:17:22;;;;;;;3.97;1.50;;;;;;;17.70;93.88;99148.22;5049218;28;20205;-79
2022/09/02 02:19:50;;;;;;;2.60;1.27;;;;;;;17.70;93.89;99147.38;5049641;28;20188;-79
2022/09/02 02:22:19;;;;;;;1.50;1.37;;;;;;;17.71;93.64;99143.69;5048348;28;20656;-79
2022/09/02 02:24:48;;;;;;;1.80;1.50;;;;;;;17.68;93.34;99139.44;5050857;28;20208;-79
2022/09/02 02:27:20;;;;;;;2.00;1.40;;;;;;;17.71;93.11;99143.69;5051831;28;20216;-80
2022/09/02 02:29:49;;;;;;;2.73;1.30;;;;;;;17.75;92.91;99139.72;5039649;28;20200;-79
2022/09/02 02:32:20;;;;;;;2.87;1.30;;;;;;;17.75;93.12;99139.72;5067050;28;20232;-79
2022/09/02 02:34:50;;;;;;;4.10;1.37;;;;;;;17.60;94.00;99141.16;5068556;28;20271;-79
2022/09/02 02:37:19;;;;;;;4.23;1.50;;;;;;;17.61;94.27;99137.47;5062609;28;20647;-79
2022/09/02 02:39:52;;;;;;;2.70;1.50;;;;;;;17.59;94.54;99140.31;5072141;28;20192;-79
2022/09/02 02:42:22;;;;;;;2.60;1.23;;;;;;;17.44;96.33;99142.56;5067613;28;20294;-79
2022/09/02 02:44:50;;;;;;;2.20;1.20;;;;;;;17.54;95.89;99139.88;5078099;28;20188;-78
2022/09/02 02:47:19;;;;;;;1.93;1.30;;;;;;;17.52;96.24;99136.50;5092447;28;20231;-78
2022/09/02 02:49:47;;;;;;;3.43;1.20;;;;;;;17.07;98.01;99136.22;5121235;28;20261;-79
2022/09/02 02:52:15;;;;;;;2.97;1.23;;;;;;;17.30;99.34;99134.97;5114271;28;20273;-79
2022/09/02 02:54:44;;;;;;;4.63;1.50;;;;;;;17.11;100.00;99134.97;5112508;28;20212;-79
2022/09/02 02:57:13;;;;;;;2.83;1.50;;;;;;;17.21;99.97;99132.31;5109323;28;20214;-79
2022/09/02 02:59:43;;;;;;;2.13;1.20;;;;;;;17.16;99.37;99138.06;5109206;28;20206;-79
2022/09/02 03:02:13;;;;;;;2.50;1.50;;;;;;;17.21;98.65;99134.97;5108853;28;20229;-80
2022/09/02 03:04:41;;;;;;;2.37;1.33;;;;;;;17.27;98.05;99139.75;5114423;28;20225;-79
2022/09/02 03:07:09;;;;;;;2.67;1.40;;;;;;;17.31;97.61;99133.16;5065790;28;20192;-80
2022/09/02 03:09:38;;;;;;;3.40;1.30;;;;;;;17.28;97.58;99128.94;5069116;28;20192;-79
2022/09/02 03:12:07;;;;;;;4.77;1.33;;;;;;;17.28;97.91;99136.97;5064135;28;20224;-79
2022/09/02 03:14:37;;;;;;;2.60;1.10;;;;;;;17.21;98.53;99141.19;5019948;28;20734;-79
2022/09/02 03:17:07;;;;;;;3.00;1.30;;;;;;;17.05;100.00;99138.19;5079480;28;20203;-79
2022/09/02 03:19:35;;;;;;;1.67;1.10;;;;;;;17.15;100.00;99139.91;5072420;28;20203;-80
2022/09/02 03:22:04;;;;;;;2.83;1.27;;;;;;;17.16;100.00;99140.75;5069215;28;20275;-80
2022/09/02 03:24:33;;;;;;;2.90;1.20;;;;;;;16.66;100.00;99138.09;5069312;28;20206;-80
2022/09/02 03:27:02;;;;;;;3.43;1.30;;;;;;;16.87;100.00;99136.19;5111078;28;20195;-80
2022/09/02 03:29:32;;;;;;;1.53;1.30;;;;;;;17.01;100.00;99132.28;5106333;28;20194;-80
2022/09/02 03:32:01;;;;;;;2.70;1.30;;;;;;;16.94;100.00;99128.47;5102260;28;20218;-79
2022/09/02 03:34:33;;;;;;;2.47;1.20;;;;;;;17.01;100.00;99140.31;5107430;28;20193;-80
2022/09/02 03:37:01;;;;;;;2.03;1.30;;;;;;;16.97;100.00;99138.03;5110777;28;20223;-79
2022/09/02 03:39:30;;;;;;;1.97;1.50;;;;;;;16.94;100.00;99136.50;5105155;28;20265;-80
2022/09/02 03:42:01;;;;;;;3.30;1.13;;;;;;;16.88;100.00;99135.22;5107746;28;20229;-80
2022/09/02 03:44:33;;;;;;;1.53;1.30;;;;;;;16.91;100.00;99133.28;5112242;28;20197;-79
2022/09/02 03:47:03;;;;;;;2.93;1.57;;;;;;;16.83;100.00;99132.13;5105038;28;20262;-80
2022/09/02 03:49:33;;;;;;;1.80;1.20;;;;;;;16.93;100.00;99128.63;5106891;28;20301;-79
2022/09/02 03:52:02;;;;;;;2.33;1.30;;;;;;;16.85;100.00;99126.63;5104205;28;20210;-80
2022/09/02 03:54:30;;;;;;;3.80;1.30;;;;;;;16.81;100.00;99119.88;5107420;28;20199;-79
2022/09/02 03:56:59;;;;;;;3.23;1.30;;;;;;;16.73;100.00;99122.41;5105369;28;20199;-80
2022/09/02 03:59:27;;;;;;;2.93;1.40;;;;;;;16.65;100.00;99128.41;5108474;28;20282;-80
2022/09/02 04:01:56;;;;;;;4.40;1.37;;;;;;;16.65;100.00;99125.72;5103573;28;20213;-79
2022/09/02 04:04:24;;;;;;;2.90;1.40;;;;;;;16.70;100.00;99122.69;5110981;28;20187;-79
2022/09/02 04:06:55;;;;;;;1.93;1.20;;;;;;;16.57;100.00;99118.38;5107590;28;20203;-79
2022/09/02 04:09:24;;;;;;;4.60;1.50;;;;;;;16.58;100.00;99117.38;5103446;28;20199;-79
2022/09/02 04:11:52;;;;;;;3.20;1.43;;;;;;;16.65;100.00;99117.69;5112815;28;20305;-79
2022/09/02 04:14:21;;;;;;;3.23;1.40;;;;;;;16.67;100.00;99121.06;5058479;28;20183;-79
2022/09/02 04:16:50;;;;;;;3.53;1.30;;;;;;;16.66;100.00;99122.06;5109744;28;20309;-79
2022/09/02 04:19:18;;;;;;;1.67;1.40;;;;;;;16.64;100.00;99116.00;5109532;28;20206;-79
2022/09/02 04:21:46;;;;;;;3.10;1.60;;;;;;;16.72;100.00;99118.03;5070010;28;20207;-79
2022/09/02 04:24:16;;;;;;;4.30;1.73;;;;;;;16.57;100.00;99125.56;5067099;28;20196;-79
2022/09/02 04:26:45;;;;;;;2.83;1.20;;;;;;;16.43;100.00;99121.44;5069189;28;20311;-79
2022/09/02 04:29:14;;;;;;;1.90;1.40;;;;;;;16.43;100.00;99124.13;5072157;28;20197;-79
2022/09/02 04:31:46;;;;;;;2.23;1.37;;;;;;;16.38;100.00;99123.66;5067693;28;20275;-79
2022/09/02 04:34:16;;;;;;;2.00;1.60;;;;;;;16.30;100.00;99123.50;5069728;28;20361;-80
2022/09/02 04:36:46;;;;;;;3.37;1.30;;;;;;;16.35;100.00;99123.94;5068148;28;20200;-79
2022/09/02 04:39:17;;;;;;;2.70;1.50;;;;;;;16.36;100.00;99122.97;5074646;28;20650;-79
2022/09/02 04:41:47;;;;;;;2.63;1.40;;;;;;;16.29;100.00;99127.16;5059507;28;20187;-79
2022/09/02 04:44:18;;;;;;;2.63;1.40;;;;;;;16.35;100.00;99123.94;5033234;28;20711;-79
2022/09/02 04:46:48;;;;;;;2.43;1.47;;;;;;;16.34;100.00;99127.59;5031656;28;20193;-79
2022/09/02 04:49:18;;;;;;;3.70;1.23;;;;;;;16.31;100.00;99131.41;4999645;28;20243;-80
2022/09/02 04:51:46;;;;;;;3.57;1.30;;;;;;;16.35;100.00;99134.66;5029217;28;20206;-79
2022/09/02 04:54:17;;;;;;;3.57;1.40;;;;;;;16.33;100.00;99141.97;5028831;28;20233;-80
2022/09/02 04:56:46;;;;;;;3.77;1.70;;;;;;;16.20;100.00;99134.16;4997683;28;20189;-79
2022/09/02 04:59:14;;;;;;;2.27;1.37;;;;;;;16.30;100.00;99139.53;4998043;28;20711;-79
2022/09/02 05:01:42;;;;;;;3.17;1.27;;;;;;;16.23;100.00;99138.41;5040620;28;20226;-80
2022/09/02 05:04:11;;;;;;;1.70;1.10;;;;;;;16.40;100.00;99143.09;5114532;28;20233;-79
2022/09/02 05:06:42;;;;;;;1.87;1.33;;;;;;;16.47;100.00;99138.06;5114698;28;20241;-79
2022/09/02 05:09:14;;;;;;;1.73;1.43;;;;;;;16.58;100.00;99143.28;5096936;28;20245;-80
2022/09/02 05:11:46;;;;;;;2.93;1.40;;;;;;;16.62;100.00;99139.38;5108657;28;20202;-79
2022/09/02 05:14:16;;;;;;;3.73;1.40;;;;;;;16.46;100.00;99139.03;5113087;28;20218;-80
2022/09/02 05:16:44;;;;;;;4.80;1.57;;;;;;;16.56;100.00;99140.75;5110970;28;20202;-79
2022/09/02 05:19:14;;;;;;;2.83;1.50;;;;;;;16.55;100.00;99138.22;5108986;28;20187;-79
2022/09/02 05:21:45;;;;;;;3.43;1.60;;;;;;;16.57;100.00;99137.09;5046118;28;20200;-79
2022/09/02 05:24:15;;;;;;;4.00;1.77;;;;;;;16.58;100.00;99145.97;5049791;28;20287;-79
2022/09/02 05:26:45;;;;;;;3.93;1.33;;;;;;;16.81;100.00;99136.78;5049593;28;20336;-79
2022/09/02 05:29:19;;;;;;;5.23;1.50;;;;;;;16.82;100.00;99148.31;5009757;28;20198;-79
2022/09/02 05:31:49;;;;;;;5.67;1.73;;;;;;;16.78;100.00;99146.88;5010396;28;20209;-79
2022/09/02 05:34:19;;;;;;;1.87;1.30;;;;;;;16.75;100.00;99147.16;5009177;28;20225;-79
2022/09/02 05:36:47;;;;;;;2.60;1.40;;;;;;;16.82;100.00;99141.13;5004232;28;20198;-79
2022/09/02 05:39:16;;;;;;;4.47;1.63;;;;;;;16.92;100.00;99137.63;5018819;28;20196;-79
2022/09/02 05:41:47;;;;;;;5.83;1.63;;;;;;;16.94;100.00;99133.81;5063638;28;20231;-80
2022/09/02 05:44:15;;;;;;;6.77;1.77;;;;;;;17.07;100.00;99134.38;5068293;28;20207;-79
2022/09/02 05:46:44;;;;;;;6.00;1.80;;;;;;;16.94;100.00;99139.19;5081474;28;20194;-80
2022/09/02 05:49:19;;;;;;;3.77;1.70;;;;;;;16.88;100.00;99134.38;5110672;28;20233;-79
2022/09/02 05:51:56;;;;;;;3.37;1.60;;;;;;;17.08;100.00;99132.56;5110162;28;20214;-79
2022/09/02 05:54:27;;;;;;;3.17;1.80;;;;;;;17.04;100.00;99137.34;5114825;28;20293;-79
2022/09/02 05:57:00;;;;;;;3.17;1.30;;;;;;;16.97;100.00;99127.34;5114865;28;20274;-79
2022/09/02 05:59:35;;;;;;;4.73;1.77;;;;;;;17.03;100.00;99135.66;5108051;28;20194;-79
2022/09/02 06:02:03;;;;;;;4.60;1.67;;;;;;;17.10;100.00;99133.28;5114227;28;20274;-79
2022/09/02 06:04:32;;;;;;;5.00;1.43;;;;;;;17.17;100.00;99126.38;5109083;28;20209;-79
2022/09/02 06:07:01;;;;;;;4.50;1.50;;;;;;;17.23;100.00;99135.69;5106981;28;20241;-79
2022/09/02 06:09:29;;;;;;;5.17;1.47;;;;;;;17.25;100.00;99133.69;5110666;28;20191;-79
2022/09/02 06:12:00;;;;;;;5.43;1.70;;;;;;;17.43;100.00;99127.50;5111642;28;20191;-79
2022/09/02 06:14:29;;;;;;;4.67;1.50;;;;;;;17.34;100.00;99138.22;5108965;28;20222;-79
2022/09/02 06:16:59;;;;;;;4.33;1.50;;;;;;;17.31;100.00;99138.50;5110732;28;20192;-79
2022/09/02 06:19:29;;;;;;;2.87;1.40;;;;;;;17.44;100.00;99136.38;5108987;28;20194;-79
2022/09/02 06:21:57;;;;;;;6.50;1.50;;;;;;;17.37;100.00;99130.75;5068874;28;20787;-79
2022/09/02 06:24:27;;;;;;;3.50;1.70;;;;;;;17.30;100.00;99136.81;5063804;28;20267;-79
2022/09/02 06:26:56;;;;;;;3.13;1.70;;;;;;;17.46;100.00;99142.41;5068889;28;20192;-79
2022/09/02 06:29:27;;;;;;;5.10;1.50;;;;;;;17.49;100.00;99133.28;5067359;28;20199;-79
2022/09/02 06:31:55;;;;;;;3.13;1.40;;;;;;;17.53;100.00;99135.50;5028813;28;20232;-80
2022/09/02 06:34:26;;;;;;;2.07;1.50;;;;;;;17.62;100.00;99134.66;5025170;28;20244;-79
2022/09/02 06:36:55;;;;;;;6.53;1.47;;;;;;;17.84;100.00;99138.03;5026284;28;20194;-79
2022/09/02 06:39:25;;;;;;;2.10;1.30;;;;;;;17.93;100.00;99129.13;5028950;28;20231;-79
2022/09/02 06:41:54;;;;;;;2.97;1.60;;;;;;;17.91;100.00;99128.41;5071287;28;20693;-79
2022/09/02 06:44:23;;;;;;;3.43;1.63;;;;;;;17.93;100.00;99123.75;5064593;28;20192;-79
2022/09/02 06:46:59;;;;;;;5.07;1.50;;;;;;;17.64;100.00;99134.50;5066117;28;20216;-79
2022/09/02 06:49:28;;;;;;;2.93;1.43;;;;;;;17.85;100.00;99139.72;5078062;28;20218;-79
2022/09/02 06:51:59;;;;;;;3.17;1.20;;;;;;;17.99;100.00;99133.91;5112618;28;20684;-79
2022/09/02 06:54:29;;;;;;;2.50;1.30;;;;;;;18.03;100.00;99130.78;5107079;28;20210;-79
2022/09/02 06:56:57;;;;;;;2.47;1.40;;;;;;;18.13;100.00;99132.56;5109659;28;20202;-79
2022/09/02 06:59:26;;;;;;;3.63;1.30;;;;;;;18.27;100.00;99137.47;5105827;28;20210;-79
2022/09/02 07:01:56;;;;;;;2.33;1.40;;;;;;;18.35;99.72;99140.25;5110507;28;20230;-79
2022/09/02 07:07:12;;;;;;;4.07;1.30;;;;;;;18.28;99.35;99137.31;5112195;28;20183;-80
2022/09/02 07:09:40;;;;;;;3.20;1.60;;;;;;;18.42;98.85;99141.34;5105016;28;20701;-79
2022/09/02 07:12:09;;;;;;;3.93;1.37;;;;;;;18.49;98.78;99136.22;5107899;28;20198;-79
2022/09/02 07:14:40;;;;;;;3.53;1.30;;;;;;;18.71;97.08;99135.00;5105658;28;20226;-79
2022/09/02 07:17:16;;;;;;;3.70;1.50;;;;;;;18.73;96.20;99133.88;5106776;28;20689;-79
2022/09/02 07:19:45;;;;;;;2.57;1.30;;;;;;;18.85;95.39;99129.16;5108527;28;20276;-80
2022/09/02 07:22:14;;;;;;;3.40;1.60;;;;;;;18.85;95.50;99130.00;5107961;28;20206;-80
2022/09/02 07:24:46;;;;;;;1.87;1.50;;;;;;;18.77;96.37;99129.06;5107341;28;20248;-79
2022/09/02 07:27:14;;;;;;;3.70;1.33;;;;;;;19.05;95.27;99124.47;5113358;28;20274;-79
2022/09/02 07:29:46;;;;;;;5.03;1.47;;;;;;;19.05;95.65;99135.22;5113373;28;20248;-79
2022/09/02 07:32:18;;;;;;;4.20;1.40;;;;;;;19.23;94.42;99121.81;5105430;28;20195;-79
2022/09/02 07:34:50;;;;;;;4.17;1.60;;;;;;;19.51;92.96;99122.53;5110506;28;20215;-79
2022/09/02 07:37:18;;;;;;;1.77;1.43;;;;;;;19.52;92.28;99125.06;5109044;28;20225;-79
2022/09/02 07:39:48;;;;;;;3.07;1.30;;;;;;;19.80;89.50;99125.81;5076252;28;20665;-80
2022/09/02 07:42:18;;;;;;;3.40;1.50;;;;;;;19.92;88.63;99118.31;5106138;28;20199;-79
2022/09/02 07:44:46;;;;;;;3.83;1.43;;;;;;;19.80;87.96;99117.75;5108016;28;20278;-80
2022/09/02 07:47:16;;;;;;;3.97;1.50;;;;;;;19.72;88.94;99117.69;5100598;28;20210;-79
2022/09/02 07:49:47;;;;;;;3.57;1.60;;;;;;;19.89;88.40;99115.97;5111774;28;20725;-79
2022/09/02 07:52:36;;;;;;;3.47;1.30;;;;;;;19.95;85.47;99124.22;5113005;28;20206;-80
2022/09/02 07:55:08;;;;;;;3.13;1.30;;;;;;;20.30;82.37;99125.09;5108037;28;20207;-79
2022/09/02 07:57:42;;;;;;;2.43;1.33;;;;;;;20.36;82.02;99124.44;5110938;28;20202;-79
2022/09/02 08:00:12;;;;;;;3.23;1.27;;;;;;;20.21;82.54;99120.69;5114376;28;20210;-80
2022/09/02 08:02:43;;;;;;;1.93;1.13;;;;;;;20.34;82.59;99118.38;5112848;28;20223;-80
2022/09/02 08:05:12;;;;;;;4.30;1.23;;;;;;;20.02;83.28;99119.06;5110901;28;20218;-80
2022/09/02 08:07:41;;;;;;;2.70;1.43;;;;;;;20.52;81.82;99108.38;5111235;28;20634;-80
2022/09/02 08:10:11;;;;;;;5.17;1.60;;;;;;;20.63;81.50;99109.94;5114348;28;20214;-80
2022/09/02 08:12:41;;;;;;;4.30;1.33;;;;;;;20.91;80.72;99110.50;5110258;28;20554;-80
2022/09/02 08:15:11;;;;;;;2.03;1.47;;;;;;;20.70;77.28;99115.53;5114155;28;20241;-80
2022/09/02 08:17:40;;;;;;;2.10;1.47;;;;;;;20.94;76.62;99110.22;5113789;28;20187;-80
2022/09/02 08:20:13;;;;;;;2.03;1.30;;;;;;;21.23;75.24;99109.75;5080408;28;20199;-80
2022/09/02 08:22:42;;;;;;;2.43;1.30;;;;;;;21.30;74.16;99112.63;5111130;28;20206;-80
2022/09/02 08:25:17;;;;;;;5.50;2.50;;;;;;;21.51;72.25;99107.56;5116663;28;20621;-80
2022/09/02 08:27:45;;;;;;;4.97;2.00;;;;;;;21.52;72.35;99111.97;5111252;28;20230;-80
2022/09/02 08:30:14;;;;;;;2.60;1.47;;;;;;;21.28;72.75;99120.88;5110928;28;20203;-80
2022/09/02 08:32:42;;;;;;;2.13;1.27;;;;;;;21.57;72.39;99112.28;5111569;28;20199;-80
2022/09/02 08:35:15;;;;;;;3.27;1.20;;;;;;;21.70;71.86;99104.50;5112458;28;20219;-80
2022/09/02 08:37:44;;;;;;;2.53;1.30;;;;;;;21.90;70.76;99104.13;5109762;28;20209;-80
2022/09/02 08:40:17;;;;;;;4.35;2.70;;;;;;;21.89;69.26;99097.91;5116330;28;20230;-80
2022/09/02 08:42:49;;;;;;;4.63;1.40;;;;;;;22.02;67.77;99101.94;5113058;28;20210;-80
2022/09/02 08:45:24;;;;;;;6.28;1.80;;;;;;;22.03;66.99;99096.38;5112794;28;20667;-80
2022/09/02 08:48:04;;;;;;;3.77;1.63;;;;;;;22.15;66.45;99097.72;5113418;28;20222;-79
2022/09/02 08:50:36;;;;;;;2.90;1.30;;;;;;;21.16;72.27;99089.84;5114362;28;20650;-79
2022/09/02 08:53:11;;;;;;;2.67;1.37;;;;;;;21.52;72.46;99097.63;5108941;28;20275;-79
2022/09/02 08:55:45;;;;;;;4.57;1.38;;;;;;;22.25;67.95;99097.50;5111203;28;20215;-79
2022/09/02 08:58:18;;;;;;;1.60;1.27;;;;;;;22.19;64.84;99090.09;5112223;28;20197;-79
2022/09/02 09:00:59;;;;;;;1.80;1.23;;;;;;;22.45;64.42;99093.38;5111970;28;20202;-79
2022/09/02 09:03:33;;;;;;;2.33;1.30;;;;;;;22.77;62.17;99094.22;5111443;28;20355;-78
2022/09/02 09:06:10;;;;;;;2.30;1.20;;;;;;;22.64;61.98;99086.69;5105282;28;20318;-79
2022/09/02 09:08:47;;;;;;;3.25;1.17;;;;;;;22.66;62.86;99092.75;5115617;28;20232;-79
2022/09/02 09:11:23;;;;;;;1.30;1.20;;;;;;;23.13;60.27;99081.84;5112732;28;20282;-79
2022/09/02 09:14:06;;;;;;;2.30;1.53;;;;;;;23.26;59.05;99086.66;5109960;28;20652;-78
2022/09/02 09:16:40;;;;;;;2.60;1.30;;;;;;;22.97;59.01;99082.00;5112497;28;20293;-79
2022/09/02 09:19:14;;;;;;;2.42;1.40;;;;;;;22.25;60.15;99070.53;5115249;28;20223;-79
2022/09/02 09:21:44;;;;;;;3.28;1.92;;;;;;;22.61;60.88;99075.41;5078302;28;20187;-79
2022/09/02 09:24:26;;;;;;;2.53;1.33;;;;;;;22.69;60.32;99069.97;5115330;28;20611;-79
2022/09/02 09:26:56;;;;;;;1.52;1.20;;;;;;;23.02;57.91;99057.13;5115240;28;20191;-79
2022/09/02 09:29:24;;;;;;;1.17;1.08;;;;;;;22.68;59.44;99066.44;5108770;28;20202;-79
2022/09/02 09:31:55;;;;;;;1.80;1.30;;;;;;;22.92;59.29;99056.50;5111376;28;20281;-79
2022/09/02 09:34:24;;;;;;;2.08;1.20;;;;;;;23.19;59.00;99058.69;5112855;28;20223;-78
2022/09/02 09:36:55;;;;;;;3.30;1.20;;;;;;;23.23;58.67;99048.34;5105608;28;20222;-79
2022/09/02 09:39:28;;;;;;;2.28;1.10;;;;;;;23.11;58.99;99056.88;5107289;28;20194;-78
2022/09/02 09:42:00;;;;;;;2.10;1.27;;;;;;;22.94;60.38;99054.47;5072339;28;20197;-79
2022/09/02 09:44:37;;;;;;;2.42;1.33;;;;;;;22.87;61.45;99051.63;5069300;28;20218;-78
2022/09/02 09:47:08;;;;;;;3.67;1.50;;;;;;;22.74;63.19;99041.41;5073477;28;20207;-78
2022/09/02 09:49:44;;;;;;;2.92;1.42;;;;;;;22.64;63.03;99046.19;5050624;28;20197;-78
2022/09/02 09:52:22;;;;;;;4.63;1.80;;;;;;;22.68;63.39;99052.06;5049372;28;20201;-79
2022/09/02 09:55:08;;;;;;;3.78;1.50;;;;;;;22.70;63.20;99044.66;5050404;28;20201;-78
2022/09/02 09:57:40;;;;;;;1.38;1.08;;;;;;;23.48;59.53;99036.28;4971904;28;20781;-79
2022/09/02 10:00:22;;;;;;;1.73;1.17;;;;;;;24.19;55.76;99032.13;4989423;28;20190;-78
2022/09/02 10:02:54;;;;;;;3.00;1.60;;;;;;;24.66;53.46;99027.31;5009053;28;20230;-78
2022/09/02 10:05:33;;;;;;;1.40;1.30;;;;;;;25.03;48.88;99029.81;4971075;28;20196;-79
2022/09/02 10:08:22;;;;;;;1.70;1.40;;;;;;;24.81;43.41;99028.94;4969901;28;20285;-80
2022/09/02 10:11:05;;;;;;;1.70;1.27;;;;;;;24.65;39.85;99028.34;4968516;28;20204;-80
2022/09/02 10:13:35;;;;;;;1.48;1.25;;;;;;;24.67;39.82;99037.09;4965555;28;20207;-79
2022/09/02 10:16:24;;;;;;;2.33;1.17;;;;;;;24.36;40.47;99027.38;4972138;28;20265;-79
2022/09/02 10:18:56;;;;;;;2.60;1.75;;;;;;;24.50;40.18;99025.66;4951705;28;20208;-79
2022/09/02 10:21:38;;;;;;;1.80;1.38;;;;;;;24.27;40.27;99025.78;4956916;28;20203;-80
2022/09/02 10:24:29;;;;;;;1.67;1.20;;;;;;;24.51;40.22;99021.91;5039287;28;20193;-80
2022/09/02 10:26:59;;;;;;;1.65;1.20;;;;;;;24.08;40.21;99015.53;5051499;28;20200;-80
2022/09/02 10:29:54;;;;;;;1.40;1.30;;;;;;;24.06;41.09;99018.44;5047548;28;20205;-79
2022/09/02 10:32:40;;;;;;;2.67;1.33;;;;;;;24.58;40.87;99014.72;5044219;28;20219;-80
2022/09/02 10:35:14;;;;;;;1.63;1.10;;;;;;;24.29;41.48;99018.31;5047980;28;20216;-80
2022/09/02 10:37:59;;;;;;;2.55;1.33;;;;;;;24.14;42.41;99012.94;5051453;28;20203;-80
2022/09/02 10:40:40;;;;;;;5.30;1.40;;;;;;;24.09;41.86;99012.63;5042083;28;20193;-80
2022/09/02 10:43:11;;;;;;;1.85;1.13;;;;;;;24.09;42.05;99014.50;5047072;28;20753;-79
2022/09/02 10:45:46;;;;;;;2.08;1.33;;;;;;;24.09;42.09;99020.75;5048430;28;20201;-79
2022/09/02 10:48:31;;;;;;;3.28;1.17;;;;;;;24.50;41.62;98993.16;5060002;28;20298;-79
2022/09/02 10:51:06;;;;;;;3.53;1.45;;;;;;;24.95;40.60;98999.25;5062243;28;20361;-80
2022/09/02 10:53:51;;;;;;;4.18;1.60;;;;;;;25.43;39.88;98991.34;5068463;28;20275;-79
2022/09/02 10:56:25;;;;;;;3.20;1.80;;;;;;;25.41;38.94;98988.84;5077159;28;20215;-80
2022/09/02 10:58:59;;;;;;;4.03;1.30;;;;;;;25.90;38.10;99005.03;5089073;28;20191;-79
2022/09/02 11:01:32;;;;;;;4.82;1.20;;;;;;;25.90;37.77;98998.78;5091868;28;20229;-79
2022/09/02 11:04:08;;;;;;;2.25;1.30;;;;;;;25.49;38.34;98994.13;5092230;28;20275;-80
2022/09/02 11:06:39;;;;;;;2.20;1.33;;;;;;;25.59;37.94;98988.34;5092352;28;20255;-80
2022/09/02 11:09:36;;;;;;;2.55;1.60;;;;;;;26.21;37.77;98995.56;5092419;28;20202;-80
2022/09/02 11:12:15;;;;;;;2.47;1.33;;;;;;;25.56;38.04;98989.53;5091448;28;20253;-79
2022/09/02 11:14:55;;;;;;;1.50;1.20;;;;;;;25.14;38.46;98986.94;5091029;28;20199;-80
2022/09/02 11:17:36;;;;;;;1.90;1.23;;;;;;;24.89;39.46;98979.19;5090217;28;20219;-79
2022/09/02 11:20:13;;;;;;;4.00;1.77;;;;;;;24.83;40.19;98982.69;5089112;28;20726;-79
2022/09/02 11:22:49;;;;;;;3.10;1.70;;;;;;;24.84;40.11;98978.94;5092035;28;20195;-80
2022/09/02 11:25:25;;;;;;;2.25;1.00;;;;;;;25.22;39.54;98970.53;5087340;28;20192;-80
2022/09/02 11:28:00;;;;;;;3.70;1.50;;;;;;;25.69;38.63;98967.09;5110317;28;20286;-80
2022/09/02 11:30:38;;;;;;;2.63;1.42;;;;;;;25.67;38.04;98964.59;5105069;28;20209;-80
2022/09/02 11:33:15;;;;;;;3.45;1.20;;;;;;;25.89;38.22;98975.38;5109949;28;20179;-80
2022/09/02 11:35:44;;;;;;;2.72;1.55;;;;;;;26.07;37.97;98974.84;5104936;28;20198;-80
2022/09/02 11:38:31;;;;;;;1.67;1.10;;;;;;;25.91;38.57;98963.28;5111371;28;20217;-80
2022/09/02 11:41:22;;;;;;;1.85;1.23;;;;;;;25.42;38.38;98957.13;5107613;28;20195;-80
2022/09/02 11:44:24;;;;;;;2.60;1.42;;;;;;;25.33;39.61;98962.69;5110264;28;20198;-80
2022/09/02 11:50:08;;;;;;;2.28;1.20;;;;;;;25.88;39.33;98952.00;5129490;27;21090;-80
2022/09/02 11:53:00;;;;;;;4.22;1.58;;;;;;;26.05;38.31;98956.03;5086204;28;20191;-80
2022/09/02 11:55:36;;;;;;;2.22;1.10;;;;;;;26.02;38.21;98951.00;5082064;28;20192;-80
2022/09/02 11:58:05;;;;;;;2.30;1.30;;;;;;;26.13;37.25;98946.88;5083483;28;20195;-80
2022/09/02 12:00:36;;;;;;;3.20;1.20;;;;;;;26.30;37.24;98942.75;5075857;28;20207;-80